sensor_id;sensor_type;location;lat;lon;timestamp;P1;durP1;ratioP1;P2;durP2;ratioP2
21181;SDS011;10749;46.296;7.524;2022-11-20T00:02:14;4.80;;;2.30;;
21181;SDS011;10749;46.296;7.524;2022-11-20T00:04:40;3.97;;;2.30;;
21181;SDS011;10749;46.296;7.524;2022-11-20T00:07:05;6.20;;;2.03;;
21181;SDS011;10749;46.296;7.524;2022-11-20T00:09:30;3.27;;;1.80;;
21181;SDS011;10749;46.296;7.524;2022-11-20T00:11:56;5.83;;;2.00;;
21181;SDS011;10749;46.296;7.524;2022-11-20T00:14:21;3.37;;;1.87;;
21181;SDS011;10749;46.296;7.524;2022-11-20T00:16:46;3.43;;;1.93;;
21181;SDS011;10749;46.296;7.524;2022-11-20T00:19:12;3.20;;;1.80;;
21181;SDS011;10749;46.296;7.524;2022-11-20T00:21:37;4.93;;;1.80;;
21181;SDS011;10749;46.296;7.524;2022-11-20T00:24:02;2.83;;;1.93;;
21181;SDS011;10749;46.296;7.524;2022-11-20T00:26:28;4.43;;;2.30;;
21181;SDS011;10749;46.296;7.524;2022-11-20T00:28:56;5.60;;;3.47;;
21181;SDS011;10749;46.296;7.524;2022-11-20T00:31:22;5.03;;;3.00;;
21181;SDS011;10749;46.296;7.524;2022-11-20T00:33:48;5.37;;;3.23;;
21181;SDS011;10749;46.296;7.524;2022-11-20T00:36:14;4.83;;;2.87;;
21181;SDS011;10749;46.296;7.524;2022-11-20T00:38:42;5.67;;;2.60;;
21181;SDS011;10749;46.296;7.524;2022-11-20T00:41:08;5.93;;;2.77;;
21181;SDS011;10749;46.296;7.524;2022-11-20T00:43:35;4.50;;;2.70;;
21181;SDS011;10749;46.296;7.524;2022-11-20T00:48:28;4.30;;;2.60;;
21181;SDS011;10749;46.296;7.524;2022-11-20T00:50:54;4.87;;;2.20;;
21181;SDS011;10749;46.296;7.524;2022-11-20T00:53:20;3.80;;;2.30;;
21181;SDS011;10749;46.296;7.524;2022-11-20T00:55:53;3.40;;;2.40;;
21181;SDS011;10749;46.296;7.524;2022-11-20T00:58:23;4.73;;;2.10;;
21181;SDS011;10749;46.296;7.524;2022-11-20T01:00:50;4.60;;;2.10;;
21181;SDS011;10749;46.296;7.524;2022-11-20T01:03:16;3.40;;;2.33;;
21181;SDS011;10749;46.296;7.524;2022-11-20T01:05:42;4.03;;;2.47;;
21181;SDS011;10749;46.296;7.524;2022-11-20T01:08:07;4.00;;;2.47;;
21181;SDS011;10749;46.296;7.524;2022-11-20T01:10:33;3.67;;;2.27;;
21181;SDS011;10749;46.296;7.524;2022-11-20T01:12:58;3.90;;;2.53;;
21181;SDS011;10749;46.296;7.524;2022-11-20T01:15:42;5.73;;;2.80;;
21181;SDS011;10749;46.296;7.524;2022-11-20T01:18:07;4.43;;;2.07;;
21181;SDS011;10749;46.296;7.524;2022-11-20T01:20:36;3.77;;;2.70;;
21181;SDS011;10749;46.296;7.524;2022-11-20T01:23:04;10.53;;;3.37;;
21181;SDS011;10749;46.296;7.524;2022-11-20T01:25:30;5.93;;;3.10;;
21181;SDS011;10749;46.296;7.524;2022-11-20T01:27:55;3.33;;;2.40;;
21181;SDS011;10749;46.296;7.524;2022-11-20T01:30:21;4.20;;;2.60;;
21181;SDS011;10749;46.296;7.524;2022-11-20T01:32:46;4.00;;;2.50;;
21181;SDS011;10749;46.296;7.524;2022-11-20T01:35:11;3.10;;;1.90;;
21181;SDS011;10749;46.296;7.524;2022-11-20T01:37:38;3.23;;;2.30;;
21181;SDS011;10749;46.296;7.524;2022-11-20T01:40:03;3.90;;;2.20;;
21181;SDS011;10749;46.296;7.524;2022-11-20T01:42:29;3.47;;;2.20;;
21181;SDS011;10749;46.296;7.524;2022-11-20T01:48:34;3.23;;;1.97;;
21181;SDS011;10749;46.296;7.524;2022-11-20T01:51:04;4.27;;;2.10;;
21181;SDS011;10749;46.296;7.524;2022-11-20T01:53:35;4.10;;;2.00;;
21181;SDS011;10749;46.296;7.524;2022-11-20T01:56:02;5.27;;;1.90;;
21181;SDS011;10749;46.296;7.524;2022-11-20T01:58:33;2.80;;;2.07;;
21181;SDS011;10749;46.296;7.524;2022-11-20T02:01:03;3.87;;;2.10;;
21181;SDS011;10749;46.296;7.524;2022-11-20T02:03:29;5.40;;;2.30;;
21181;SDS011;10749;46.296;7.524;2022-11-20T02:05:56;2.90;;;1.90;;
21181;SDS011;10749;46.296;7.524;2022-11-20T02:08:28;2.63;;;2.00;;
21181;SDS011;10749;46.296;7.524;2022-11-20T02:10:55;5.30;;;2.30;;
21181;SDS011;10749;46.296;7.524;2022-11-20T02:13:20;2.63;;;1.90;;
21181;SDS011;10749;46.296;7.524;2022-11-20T02:16:04;2.10;;;1.53;;
21181;SDS011;10749;46.296;7.524;2022-11-20T02:18:33;3.30;;;2.03;;
21181;SDS011;10749;46.296;7.524;2022-11-20T02:21:01;2.50;;;1.67;;
21181;SDS011;10749;46.296;7.524;2022-11-20T02:23:32;4.20;;;1.80;;
21181;SDS011;10749;46.296;7.524;2022-11-20T02:26:01;2.70;;;1.67;;
21181;SDS011;10749;46.296;7.524;2022-11-20T02:28:30;2.60;;;1.63;;
21181;SDS011;10749;46.296;7.524;2022-11-20T02:30:56;3.20;;;1.87;;
21181;SDS011;10749;46.296;7.524;2022-11-20T02:33:21;3.20;;;1.70;;
21181;SDS011;10749;46.296;7.524;2022-11-20T02:35:47;4.40;;;1.97;;
21181;SDS011;10749;46.296;7.524;2022-11-20T02:38:12;2.50;;;1.63;;
21181;SDS011;10749;46.296;7.524;2022-11-20T02:40:39;4.00;;;1.70;;
21181;SDS011;10749;46.296;7.524;2022-11-20T02:43:05;3.17;;;2.10;;
21181;SDS011;10749;46.296;7.524;2022-11-20T02:45:30;3.70;;;2.00;;
21181;SDS011;10749;46.296;7.524;2022-11-20T02:47:55;2.77;;;1.60;;
21181;SDS011;10749;46.296;7.524;2022-11-20T02:50:21;3.03;;;1.70;;
21181;SDS011;10749;46.296;7.524;2022-11-20T02:52:46;2.47;;;1.60;;
21181;SDS011;10749;46.296;7.524;2022-11-20T02:55:11;3.10;;;1.33;;
21181;SDS011;10749;46.296;7.524;2022-11-20T02:57:37;5.30;;;1.70;;
21181;SDS011;10749;46.296;7.524;2022-11-20T03:00:03;3.10;;;1.60;;
21181;SDS011;10749;46.296;7.524;2022-11-20T03:02:29;2.30;;;1.53;;
21181;SDS011;10749;46.296;7.524;2022-11-20T03:04:55;6.10;;;2.03;;
21181;SDS011;10749;46.296;7.524;2022-11-20T03:07:20;3.97;;;1.90;;
21181;SDS011;10749;46.296;7.524;2022-11-20T03:09:46;4.43;;;2.10;;
21181;SDS011;10749;46.296;7.524;2022-11-20T03:12:11;4.00;;;2.10;;
21181;SDS011;10749;46.296;7.524;2022-11-20T03:14:36;4.83;;;1.97;;
21181;SDS011;10749;46.296;7.524;2022-11-20T03:17:02;4.97;;;2.40;;
21181;SDS011;10749;46.296;7.524;2022-11-20T03:19:27;4.40;;;2.30;;
21181;SDS011;10749;46.296;7.524;2022-11-20T03:21:53;3.30;;;2.10;;
21181;SDS011;10749;46.296;7.524;2022-11-20T03:24:18;2.63;;;1.97;;
21181;SDS011;10749;46.296;7.524;2022-11-20T03:26:43;3.07;;;2.20;;
21181;SDS011;10749;46.296;7.524;2022-11-20T03:29:08;3.00;;;2.03;;
21181;SDS011;10749;46.296;7.524;2022-11-20T03:31:35;4.77;;;2.30;;
21181;SDS011;10749;46.296;7.524;2022-11-20T03:34:02;6.40;;;2.30;;
21181;SDS011;10749;46.296;7.524;2022-11-20T03:36:29;4.47;;;2.10;;
21181;SDS011;10749;46.296;7.524;2022-11-20T03:38:55;2.60;;;1.83;;
21181;SDS011;10749;46.296;7.524;2022-11-20T03:41:22;3.57;;;2.30;;
21181;SDS011;10749;46.296;7.524;2022-11-20T03:43:50;2.43;;;2.00;;
21181;SDS011;10749;46.296;7.524;2022-11-20T03:46:17;4.37;;;2.10;;
21181;SDS011;10749;46.296;7.524;2022-11-20T03:48:42;2.87;;;1.87;;
21181;SDS011;10749;46.296;7.524;2022-11-20T03:53:39;2.63;;;1.80;;
21181;SDS011;10749;46.296;7.524;2022-11-20T03:56:05;5.20;;;2.00;;
21181;SDS011;10749;46.296;7.524;2022-11-20T03:58:32;3.50;;;1.70;;
21181;SDS011;10749;46.296;7.524;2022-11-20T04:01:03;4.80;;;1.67;;
21181;SDS011;10749;46.296;7.524;2022-11-20T04:03:30;2.63;;;1.70;;
21181;SDS011;10749;46.296;7.524;2022-11-20T04:06:00;3.50;;;2.00;;
21181;SDS011;10749;46.296;7.524;2022-11-20T04:08:33;2.43;;;1.70;;
21181;SDS011;10749;46.296;7.524;2022-11-20T04:11:15;4.03;;;1.93;;
21181;SDS011;10749;46.296;7.524;2022-11-20T04:13:45;2.80;;;1.60;;
21181;SDS011;10749;46.296;7.524;2022-11-20T04:16:13;1.90;;;1.20;;
21181;SDS011;10749;46.296;7.524;2022-11-20T04:18:38;5.10;;;1.77;;
21181;SDS011;10749;46.296;7.524;2022-11-20T04:21:04;3.57;;;1.47;;
21181;SDS011;10749;46.296;7.524;2022-11-20T04:23:30;2.33;;;1.33;;
21181;SDS011;10749;46.296;7.524;2022-11-20T04:26:00;3.93;;;1.30;;
21181;SDS011;10749;46.296;7.524;2022-11-20T04:28:28;5.07;;;1.60;;
21181;SDS011;10749;46.296;7.524;2022-11-20T04:30:53;2.07;;;1.07;;
21181;SDS011;10749;46.296;7.524;2022-11-20T04:33:19;2.97;;;1.53;;
21181;SDS011;10749;46.296;7.524;2022-11-20T04:35:44;3.70;;;1.73;;
21181;SDS011;10749;46.296;7.524;2022-11-20T04:38:12;3.97;;;1.37;;
21181;SDS011;10749;46.296;7.524;2022-11-20T04:40:38;3.67;;;1.20;;
21181;SDS011;10749;46.296;7.524;2022-11-20T04:43:03;1.73;;;1.10;;
21181;SDS011;10749;46.296;7.524;2022-11-20T04:45:28;3.73;;;1.43;;
21181;SDS011;10749;46.296;7.524;2022-11-20T04:47:53;4.37;;;1.57;;
21181;SDS011;10749;46.296;7.524;2022-11-20T04:50:19;3.60;;;1.40;;
21181;SDS011;10749;46.296;7.524;2022-11-20T04:52:44;3.17;;;1.57;;
21181;SDS011;10749;46.296;7.524;2022-11-20T04:55:10;2.33;;;1.60;;
21181;SDS011;10749;46.296;7.524;2022-11-20T04:57:35;2.07;;;1.50;;
21181;SDS011;10749;46.296;7.524;2022-11-20T05:00:00;2.50;;;1.70;;
21181;SDS011;10749;46.296;7.524;2022-11-20T05:02:25;1.83;;;1.50;;
21181;SDS011;10749;46.296;7.524;2022-11-20T05:04:51;2.03;;;1.20;;
21181;SDS011;10749;46.296;7.524;2022-11-20T05:07:16;3.03;;;1.50;;
21181;SDS011;10749;46.296;7.524;2022-11-20T05:09:41;3.50;;;1.80;;
21181;SDS011;10749;46.296;7.524;2022-11-20T05:12:07;2.77;;;1.50;;
21181;SDS011;10749;46.296;7.524;2022-11-20T05:14:33;2.70;;;1.57;;
21181;SDS011;10749;46.296;7.524;2022-11-20T05:16:58;2.60;;;1.50;;
21181;SDS011;10749;46.296;7.524;2022-11-20T05:19:23;3.60;;;1.83;;
21181;SDS011;10749;46.296;7.524;2022-11-20T05:21:49;5.23;;;1.70;;
21181;SDS011;10749;46.296;7.524;2022-11-20T05:24:14;5.40;;;1.80;;
21181;SDS011;10749;46.296;7.524;2022-11-20T05:26:39;3.80;;;1.63;;
21181;SDS011;10749;46.296;7.524;2022-11-20T05:29:04;4.33;;;1.80;;
21181;SDS011;10749;46.296;7.524;2022-11-20T05:31:30;2.30;;;1.50;;
21181;SDS011;10749;46.296;7.524;2022-11-20T05:33:55;2.07;;;1.43;;
21181;SDS011;10749;46.296;7.524;2022-11-20T05:36:22;3.40;;;1.70;;
21181;SDS011;10749;46.296;7.524;2022-11-20T05:38:47;2.93;;;1.40;;
21181;SDS011;10749;46.296;7.524;2022-11-20T05:41:13;2.60;;;1.70;;
21181;SDS011;10749;46.296;7.524;2022-11-20T05:43:41;3.43;;;1.90;;
21181;SDS011;10749;46.296;7.524;2022-11-20T05:46:09;2.60;;;1.47;;
21181;SDS011;10749;46.296;7.524;2022-11-20T05:48:36;4.40;;;1.73;;
21181;SDS011;10749;46.296;7.524;2022-11-20T05:51:03;4.17;;;1.23;;
21181;SDS011;10749;46.296;7.524;2022-11-20T05:53:31;2.37;;;1.70;;
21181;SDS011;10749;46.296;7.524;2022-11-20T05:55:58;3.10;;;1.77;;
21181;SDS011;10749;46.296;7.524;2022-11-20T05:58:24;3.87;;;1.93;;
21181;SDS011;10749;46.296;7.524;2022-11-20T06:00:49;4.07;;;2.00;;
21181;SDS011;10749;46.296;7.524;2022-11-20T06:03:15;4.60;;;2.17;;
21181;SDS011;10749;46.296;7.524;2022-11-20T06:05:40;3.00;;;2.00;;
21181;SDS011;10749;46.296;7.524;2022-11-20T06:08:05;3.67;;;2.10;;
21181;SDS011;10749;46.296;7.524;2022-11-20T06:10:31;2.80;;;1.70;;
21181;SDS011;10749;46.296;7.524;2022-11-20T06:12:59;4.47;;;2.13;;
21181;SDS011;10749;46.296;7.524;2022-11-20T06:15:25;2.50;;;1.80;;
21181;SDS011;10749;46.296;7.524;2022-11-20T06:17:53;4.57;;;1.90;;
21181;SDS011;10749;46.296;7.524;2022-11-20T06:20:19;3.90;;;2.10;;
21181;SDS011;10749;46.296;7.524;2022-11-20T06:22:45;2.93;;;1.80;;
21181;SDS011;10749;46.296;7.524;2022-11-20T06:25:10;6.10;;;2.07;;
21181;SDS011;10749;46.296;7.524;2022-11-20T06:27:36;2.90;;;2.00;;
21181;SDS011;10749;46.296;7.524;2022-11-20T06:30:01;2.93;;;1.90;;
21181;SDS011;10749;46.296;7.524;2022-11-20T06:32:26;4.07;;;2.17;;
21181;SDS011;10749;46.296;7.524;2022-11-20T06:34:51;4.87;;;2.00;;
21181;SDS011;10749;46.296;7.524;2022-11-20T06:37:17;2.90;;;1.97;;
21181;SDS011;10749;46.296;7.524;2022-11-20T06:39:42;3.90;;;1.90;;
21181;SDS011;10749;46.296;7.524;2022-11-20T06:42:07;3.60;;;2.23;;
21181;SDS011;10749;46.296;7.524;2022-11-20T06:44:32;4.57;;;2.23;;
21181;SDS011;10749;46.296;7.524;2022-11-20T06:46:58;3.50;;;1.90;;
21181;SDS011;10749;46.296;7.524;2022-11-20T06:49:23;4.13;;;2.37;;
21181;SDS011;10749;46.296;7.524;2022-11-20T06:51:48;5.53;;;2.20;;
21181;SDS011;10749;46.296;7.524;2022-11-20T06:54:14;4.00;;;2.50;;
21181;SDS011;10749;46.296;7.524;2022-11-20T06:56:39;4.30;;;2.27;;
21181;SDS011;10749;46.296;7.524;2022-11-20T06:59:06;3.37;;;2.23;;
21181;SDS011;10749;46.296;7.524;2022-11-20T07:01:32;2.60;;;1.93;;
21181;SDS011;10749;46.296;7.524;2022-11-20T07:03:57;3.93;;;2.13;;
21181;SDS011;10749;46.296;7.524;2022-11-20T07:06:22;3.53;;;2.33;;
21181;SDS011;10749;46.296;7.524;2022-11-20T07:08:49;3.47;;;2.03;;
21181;SDS011;10749;46.296;7.524;2022-11-20T07:11:16;4.30;;;2.20;;
21181;SDS011;10749;46.296;7.524;2022-11-20T07:13:42;4.27;;;2.33;;
21181;SDS011;10749;46.296;7.524;2022-11-20T07:16:07;4.73;;;2.30;;
21181;SDS011;10749;46.296;7.524;2022-11-20T07:18:33;2.63;;;2.03;;
21181;SDS011;10749;46.296;7.524;2022-11-20T07:21:00;4.67;;;2.30;;
21181;SDS011;10749;46.296;7.524;2022-11-20T07:23:26;4.10;;;2.00;;
21181;SDS011;10749;46.296;7.524;2022-11-20T07:25:51;4.90;;;2.40;;
21181;SDS011;10749;46.296;7.524;2022-11-20T07:28:16;6.57;;;2.60;;
21181;SDS011;10749;46.296;7.524;2022-11-20T07:30:42;4.13;;;2.30;;
21181;SDS011;10749;46.296;7.524;2022-11-20T07:33:07;4.97;;;2.13;;
21181;SDS011;10749;46.296;7.524;2022-11-20T07:35:32;5.07;;;2.40;;
21181;SDS011;10749;46.296;7.524;2022-11-20T07:37:58;3.83;;;2.13;;
21181;SDS011;10749;46.296;7.524;2022-11-20T07:40:23;5.10;;;2.47;;
21181;SDS011;10749;46.296;7.524;2022-11-20T07:42:52;2.90;;;2.03;;
21181;SDS011;10749;46.296;7.524;2022-11-20T07:45:19;4.10;;;2.30;;
21181;SDS011;10749;46.296;7.524;2022-11-20T07:47:45;2.40;;;1.70;;
21181;SDS011;10749;46.296;7.524;2022-11-20T07:50:11;6.50;;;2.23;;
21181;SDS011;10749;46.296;7.524;2022-11-20T07:52:37;4.63;;;2.30;;
21181;SDS011;10749;46.296;7.524;2022-11-20T07:55:03;3.80;;;2.17;;
21181;SDS011;10749;46.296;7.524;2022-11-20T07:57:28;4.37;;;2.07;;
21181;SDS011;10749;46.296;7.524;2022-11-20T07:59:53;5.23;;;2.53;;
21181;SDS011;10749;46.296;7.524;2022-11-20T08:02:19;3.77;;;2.10;;
21181;SDS011;10749;46.296;7.524;2022-11-20T08:04:44;6.03;;;3.17;;
21181;SDS011;10749;46.296;7.524;2022-11-20T08:07:09;6.87;;;2.80;;
21181;SDS011;10749;46.296;7.524;2022-11-20T08:09:34;4.77;;;2.43;;
21181;SDS011;10749;46.296;7.524;2022-11-20T08:12:00;4.60;;;2.13;;
21181;SDS011;10749;46.296;7.524;2022-11-20T08:14:44;2.73;;;2.30;;
21181;SDS011;10749;46.296;7.524;2022-11-20T08:17:09;2.83;;;2.23;;
21181;SDS011;10749;46.296;7.524;2022-11-20T08:19:35;4.07;;;1.80;;
21181;SDS011;10749;46.296;7.524;2022-11-20T08:22:00;3.87;;;2.03;;
21181;SDS011;10749;46.296;7.524;2022-11-20T08:24:25;4.27;;;1.90;;
21181;SDS011;10749;46.296;7.524;2022-11-20T08:26:51;2.90;;;2.00;;
21181;SDS011;10749;46.296;7.524;2022-11-20T08:29:17;5.73;;;2.83;;
21181;SDS011;10749;46.296;7.524;2022-11-20T08:31:42;5.33;;;2.80;;
21181;SDS011;10749;46.296;7.524;2022-11-20T08:34:08;5.63;;;2.50;;
21181;SDS011;10749;46.296;7.524;2022-11-20T08:36:33;5.03;;;2.60;;
21181;SDS011;10749;46.296;7.524;2022-11-20T08:39:00;2.70;;;1.60;;
21181;SDS011;10749;46.296;7.524;2022-11-20T08:41:25;4.47;;;1.80;;
21181;SDS011;10749;46.296;7.524;2022-11-20T08:44:09;5.10;;;1.83;;
21181;SDS011;10749;46.296;7.524;2022-11-20T08:46:36;3.73;;;1.50;;
21181;SDS011;10749;46.296;7.524;2022-11-20T08:49:03;3.97;;;1.63;;
21181;SDS011;10749;46.296;7.524;2022-11-20T08:51:29;4.60;;;2.10;;
21181;SDS011;10749;46.296;7.524;2022-11-20T08:53:55;3.67;;;1.60;;
21181;SDS011;10749;46.296;7.524;2022-11-20T08:56:20;3.00;;;1.53;;
21181;SDS011;10749;46.296;7.524;2022-11-20T08:58:46;3.03;;;1.60;;
21181;SDS011;10749;46.296;7.524;2022-11-20T09:01:11;2.80;;;1.10;;
21181;SDS011;10749;46.296;7.524;2022-11-20T09:03:37;2.77;;;1.63;;
21181;SDS011;10749;46.296;7.524;2022-11-20T09:06:03;4.27;;;1.70;;
21181;SDS011;10749;46.296;7.524;2022-11-20T09:08:30;2.90;;;1.40;;
21181;SDS011;10749;46.296;7.524;2022-11-20T09:10:57;2.57;;;1.53;;
21181;SDS011;10749;46.296;7.524;2022-11-20T09:13:23;3.73;;;1.50;;
21181;SDS011;10749;46.296;7.524;2022-11-20T09:15:53;2.33;;;1.30;;
21181;SDS011;10749;46.296;7.524;2022-11-20T09:18:33;2.50;;;1.30;;
21181;SDS011;10749;46.296;7.524;2022-11-20T09:21:02;3.33;;;1.40;;
21181;SDS011;10749;46.296;7.524;2022-11-20T09:23:33;2.43;;;1.40;;
21181;SDS011;10749;46.296;7.524;2022-11-20T09:26:07;2.60;;;1.40;;
21181;SDS011;10749;46.296;7.524;2022-11-20T09:28:35;3.73;;;1.33;;
21181;SDS011;10749;46.296;7.524;2022-11-20T09:31:00;3.83;;;1.60;;
21181;SDS011;10749;46.296;7.524;2022-11-20T09:33:26;4.30;;;1.63;;
21181;SDS011;10749;46.296;7.524;2022-11-20T09:35:52;3.67;;;1.50;;
21181;SDS011;10749;46.296;7.524;2022-11-20T09:38:17;2.33;;;1.67;;
21181;SDS011;10749;46.296;7.524;2022-11-20T09:41:04;2.00;;;1.40;;
21181;SDS011;10749;46.296;7.524;2022-11-20T09:54:04;3.87;;;1.87;;
21181;SDS011;10749;46.296;7.524;2022-11-20T09:56:47;1.93;;;1.30;;
21181;SDS011;10749;46.296;7.524;2022-11-20T09:59:27;1.93;;;1.13;;
21181;SDS011;10749;46.296;7.524;2022-11-20T10:01:59;1.90;;;1.00;;
21181;SDS011;10749;46.296;7.524;2022-11-20T10:04:27;2.13;;;1.20;;
21181;SDS011;10749;46.296;7.524;2022-11-20T10:07:04;1.93;;;1.10;;
21181;SDS011;10749;46.296;7.524;2022-11-20T10:09:38;2.57;;;1.10;;
21181;SDS011;10749;46.296;7.524;2022-11-20T10:12:13;2.30;;;1.40;;
21181;SDS011;10749;46.296;7.524;2022-11-20T10:18:05;2.87;;;1.20;;
21181;SDS011;10749;46.296;7.524;2022-11-20T10:29:12;2.20;;;1.13;;
21181;SDS011;10749;46.296;7.524;2022-11-20T10:31:41;3.27;;;1.40;;
21181;SDS011;10749;46.296;7.524;2022-11-20T10:37:02;3.23;;;1.57;;
21181;SDS011;10749;46.296;7.524;2022-11-20T10:42:08;1.87;;;1.10;;
21181;SDS011;10749;46.296;7.524;2022-11-20T10:44:37;2.43;;;1.20;;
21181;SDS011;10749;46.296;7.524;2022-11-20T10:47:26;2.10;;;1.07;;
21181;SDS011;10749;46.296;7.524;2022-11-20T10:49:55;1.67;;;1.07;;
21181;SDS011;10749;46.296;7.524;2022-11-20T10:52:37;2.10;;;1.03;;
21181;SDS011;10749;46.296;7.524;2022-11-20T10:55:12;2.33;;;1.50;;
21181;SDS011;10749;46.296;7.524;2022-11-20T11:00:46;1.50;;;1.10;;
21181;SDS011;10749;46.296;7.524;2022-11-20T11:03:20;1.77;;;1.00;;
21181;SDS011;10749;46.296;7.524;2022-11-20T11:05:53;4.37;;;1.60;;
21181;SDS011;10749;46.296;7.524;2022-11-20T11:08:23;4.17;;;2.27;;
21181;SDS011;10749;46.296;7.524;2022-11-20T11:10:53;3.13;;;1.83;;
21181;SDS011;10749;46.296;7.524;2022-11-20T11:15:51;5.70;;;3.20;;
21181;SDS011;10749;46.296;7.524;2022-11-20T11:18:30;5.30;;;3.20;;
21181;SDS011;10749;46.296;7.524;2022-11-20T11:20:57;3.57;;;2.10;;
21181;SDS011;10749;46.296;7.524;2022-11-20T11:23:30;4.33;;;2.27;;
21181;SDS011;10749;46.296;7.524;2022-11-20T11:26:01;5.23;;;2.77;;
21181;SDS011;10749;46.296;7.524;2022-11-20T11:28:28;7.03;;;4.80;;
21181;SDS011;10749;46.296;7.524;2022-11-20T11:30:54;5.70;;;3.43;;
21181;SDS011;10749;46.296;7.524;2022-11-20T11:33:21;4.07;;;2.60;;
21181;SDS011;10749;46.296;7.524;2022-11-20T11:35:49;3.93;;;2.97;;
21181;SDS011;10749;46.296;7.524;2022-11-20T11:38:43;1.40;;;0.90;;
21181;SDS011;10749;46.296;7.524;2022-11-20T11:41:16;1.60;;;1.13;;
21181;SDS011;10749;46.296;7.524;2022-11-20T11:43:55;2.03;;;1.13;;
21181;SDS011;10749;46.296;7.524;2022-11-20T11:46:53;2.53;;;1.20;;
21181;SDS011;10749;46.296;7.524;2022-11-20T11:49:20;1.57;;;0.90;;
21181;SDS011;10749;46.296;7.524;2022-11-20T11:54:16;2.27;;;1.30;;
21181;SDS011;10749;46.296;7.524;2022-11-20T11:56:48;1.57;;;1.00;;
21181;SDS011;10749;46.296;7.524;2022-11-20T12:02:28;4.83;;;2.30;;
21181;SDS011;10749;46.296;7.524;2022-11-20T12:04:59;3.73;;;1.33;;
21181;SDS011;10749;46.296;7.524;2022-11-20T12:07:46;3.90;;;1.30;;
21181;SDS011;10749;46.296;7.524;2022-11-20T12:13:15;1.90;;;1.00;;
21181;SDS011;10749;46.296;7.524;2022-11-20T12:15:51;3.77;;;1.23;;
21181;SDS011;10749;46.296;7.524;2022-11-20T12:18:18;5.40;;;2.70;;
21181;SDS011;10749;46.296;7.524;2022-11-20T12:20:48;7.57;;;3.67;;
21181;SDS011;10749;46.296;7.524;2022-11-20T12:23:33;3.10;;;1.20;;
21181;SDS011;10749;46.296;7.524;2022-11-20T12:26:11;4.73;;;1.60;;
21181;SDS011;10749;46.296;7.524;2022-11-20T12:28:59;4.07;;;2.00;;
21181;SDS011;10749;46.296;7.524;2022-11-20T12:43:24;2.83;;;1.77;;
21181;SDS011;10749;46.296;7.524;2022-11-20T13:02:26;2.77;;;1.50;;
21181;SDS011;10749;46.296;7.524;2022-11-20T13:08:08;2.77;;;1.57;;
21181;SDS011;10749;46.296;7.524;2022-11-20T13:19:13;3.50;;;1.77;;
21181;SDS011;10749;46.296;7.524;2022-11-20T13:21:43;2.33;;;1.50;;
21181;SDS011;10749;46.296;7.524;2022-11-20T13:24:21;3.87;;;2.80;;
21181;SDS011;10749;46.296;7.524;2022-11-20T13:27:00;5.97;;;4.27;;
21181;SDS011;10749;46.296;7.524;2022-11-20T13:29:27;5.10;;;3.27;;
21181;SDS011;10749;46.296;7.524;2022-11-20T13:32:01;5.23;;;3.67;;
21181;SDS011;10749;46.296;7.524;2022-11-20T13:34:27;3.80;;;2.40;;
21181;SDS011;10749;46.296;7.524;2022-11-20T13:36:54;5.37;;;3.73;;
21181;SDS011;10749;46.296;7.524;2022-11-20T13:39:28;3.87;;;2.20;;
21181;SDS011;10749;46.296;7.524;2022-11-20T13:42:02;2.23;;;1.60;;
21181;SDS011;10749;46.296;7.524;2022-11-20T13:44:50;3.70;;;2.20;;
21181;SDS011;10749;46.296;7.524;2022-11-20T13:47:23;5.40;;;2.47;;
21181;SDS011;10749;46.296;7.524;2022-11-20T13:49:51;4.33;;;2.60;;
21181;SDS011;10749;46.296;7.524;2022-11-20T14:01:35;3.00;;;1.23;;
21181;SDS011;10749;46.296;7.524;2022-11-20T14:03:45;2.37;;;0.97;;
21181;SDS011;10749;46.296;7.524;2022-11-20T14:06:14;1.93;;;1.10;;
21181;SDS011;10749;46.296;7.524;2022-11-20T14:08:52;3.37;;;0.97;;
21181;SDS011;10749;46.296;7.524;2022-11-20T14:11:19;1.60;;;0.80;;
21181;SDS011;10749;46.296;7.524;2022-11-20T14:13:56;3.67;;;0.80;;
21181;SDS011;10749;46.296;7.524;2022-11-20T14:16:29;1.40;;;0.80;;
21181;SDS011;10749;46.296;7.524;2022-11-20T14:21:44;1.37;;;0.83;;
21181;SDS011;10749;46.296;7.524;2022-11-20T14:24:14;1.63;;;1.00;;
21181;SDS011;10749;46.296;7.524;2022-11-20T14:26:44;2.37;;;0.80;;
21181;SDS011;10749;46.296;7.524;2022-11-20T14:29:14;1.50;;;0.60;;
21181;SDS011;10749;46.296;7.524;2022-11-20T14:31:42;1.00;;;0.70;;
21181;SDS011;10749;46.296;7.524;2022-11-20T14:34:23;2.23;;;0.90;;
21181;SDS011;10749;46.296;7.524;2022-11-20T14:36:56;1.60;;;0.67;;
21181;SDS011;10749;46.296;7.524;2022-11-20T14:39:29;0.90;;;0.80;;
21181;SDS011;10749;46.296;7.524;2022-11-20T14:41:57;2.13;;;0.90;;
21181;SDS011;10749;46.296;7.524;2022-11-20T14:44:33;1.37;;;0.80;;
21181;SDS011;10749;46.296;7.524;2022-11-20T14:47:00;1.70;;;0.80;;
21181;SDS011;10749;46.296;7.524;2022-11-20T14:49:26;3.57;;;1.00;;
21181;SDS011;10749;46.296;7.524;2022-11-20T14:52:02;1.73;;;0.77;;
21181;SDS011;10749;46.296;7.524;2022-11-20T14:54:43;2.93;;;0.90;;
21181;SDS011;10749;46.296;7.524;2022-11-20T14:57:18;3.47;;;1.53;;
21181;SDS011;10749;46.296;7.524;2022-11-20T15:02:32;4.37;;;1.70;;
21181;SDS011;10749;46.296;7.524;2022-11-20T15:04:59;1.90;;;0.90;;
21181;SDS011;10749;46.296;7.524;2022-11-20T15:07:32;2.00;;;0.73;;
21181;SDS011;10749;46.296;7.524;2022-11-20T15:10:00;3.07;;;0.90;;
21181;SDS011;10749;46.296;7.524;2022-11-20T15:12:26;4.50;;;1.00;;
21181;SDS011;10749;46.296;7.524;2022-11-20T15:14:52;4.80;;;1.03;;
21181;SDS011;10749;46.296;7.524;2022-11-20T15:17:17;4.27;;;1.50;;
21181;SDS011;10749;46.296;7.524;2022-11-20T15:19:42;3.03;;;1.03;;
21181;SDS011;10749;46.296;7.524;2022-11-20T15:22:11;2.40;;;1.10;;
21181;SDS011;10749;46.296;7.524;2022-11-20T15:24:44;5.80;;;2.00;;
21181;SDS011;10749;46.296;7.524;2022-11-20T15:27:10;4.30;;;1.70;;
21181;SDS011;10749;46.296;7.524;2022-11-20T15:29:35;2.60;;;1.20;;
21181;SDS011;10749;46.296;7.524;2022-11-20T15:32:01;3.83;;;1.10;;
21181;SDS011;10749;46.296;7.524;2022-11-20T15:34:26;3.67;;;1.23;;
21181;SDS011;10749;46.296;7.524;2022-11-20T15:36:52;4.30;;;1.93;;
21181;SDS011;10749;46.296;7.524;2022-11-20T15:39:19;5.47;;;1.80;;
21181;SDS011;10749;46.296;7.524;2022-11-20T15:41:44;2.37;;;1.30;;
21181;SDS011;10749;46.296;7.524;2022-11-20T15:44:10;3.90;;;1.70;;
21181;SDS011;10749;46.296;7.524;2022-11-20T15:46:36;5.00;;;2.07;;
21181;SDS011;10749;46.296;7.524;2022-11-20T15:49:05;2.33;;;1.17;;
21181;SDS011;10749;46.296;7.524;2022-11-20T15:51:32;7.10;;;3.43;;
21181;SDS011;10749;46.296;7.524;2022-11-20T15:54:00;3.87;;;1.90;;
21181;SDS011;10749;46.296;7.524;2022-11-20T15:56:28;4.30;;;2.10;;
21181;SDS011;10749;46.296;7.524;2022-11-20T15:58:54;4.30;;;1.20;;
21181;SDS011;10749;46.296;7.524;2022-11-20T16:01:20;2.50;;;1.20;;
21181;SDS011;10749;46.296;7.524;2022-11-20T16:03:47;6.73;;;2.33;;
21181;SDS011;10749;46.296;7.524;2022-11-20T16:06:13;2.93;;;1.30;;
21181;SDS011;10749;46.296;7.524;2022-11-20T16:08:38;2.90;;;1.83;;
21181;SDS011;10749;46.296;7.524;2022-11-20T16:11:04;2.80;;;1.60;;
21181;SDS011;10749;46.296;7.524;2022-11-20T16:13:30;2.30;;;1.33;;
21181;SDS011;10749;46.296;7.524;2022-11-20T16:16:25;2.90;;;1.80;;
21181;SDS011;10749;46.296;7.524;2022-11-20T16:18:55;4.80;;;1.47;;
21181;SDS011;10749;46.296;7.524;2022-11-20T16:21:21;5.57;;;1.17;;
21181;SDS011;10749;46.296;7.524;2022-11-20T16:23:52;4.47;;;1.40;;
21181;SDS011;10749;46.296;7.524;2022-11-20T16:26:17;2.83;;;1.73;;
21181;SDS011;10749;46.296;7.524;2022-11-20T16:28:44;2.90;;;2.10;;
21181;SDS011;10749;46.296;7.524;2022-11-20T16:31:10;4.40;;;2.30;;
21181;SDS011;10749;46.296;7.524;2022-11-20T16:33:36;4.50;;;1.87;;
21181;SDS011;10749;46.296;7.524;2022-11-20T16:36:11;4.23;;;2.10;;
21181;SDS011;10749;46.296;7.524;2022-11-20T16:38:38;3.13;;;1.80;;
21181;SDS011;10749;46.296;7.524;2022-11-20T16:41:04;7.07;;;2.00;;